La Belle Poule — FBPU — position and weather

sailwx.info

Track history (hours):
 
Tides and Currents Weather Stations Pressure Air Temp Water Temp Dewpoint Dewpoint Depression Visibility Wind Speed Wind Dir Waves Ship Positions

La Belle Poule (France)

Ship's website: http://www.defense.gouv.fr/english/portail-defense

Last reported at 2017-Jul-24 10:46 UTC. Time now 2017-Jul-28 06:35 UTC.
Position N 59°38' E 021°20'.

Length 38 m; draft 3.6 m.

Type: Sailing vessel. MMSI: 228796000.

Date/timePositionNaut miles runAvg speedWind from/ knotsBaromVisibWave heightAir tempDewpointWater temp
2017-Jul-24 10:46N 59°38' E 021°20'2 1.2
2017-Jul-24 09:18N 59°40' E 021°21'4 2.1
2017-Jul-24 07:29N 59°38' E 021°27'3 5.3
2017-Jul-24 06:55N 59°39' E 021°22'3 0.7
2017-Jul-24 03:02N 59°36' E 021°25'1 4.1
2017-Jul-24 02:52N 59°36' E 021°24'5 0.8
2017-Jul-23 20:41N 59°41' E 021°21'1 8.2
2017-Jul-23 20:30N 59°42' E 021°22'4 8.5
2017-Jul-23 20:00N 59°47' E 021°21'3 7.2
2017-Jul-23 19:31N 59°50' E 021°23'4 7.2
2017-Jul-23 19:00N 59°52' E 021°29'  
2017-Jul-18 06:36N 59°32' E 024°39'1 7.0
2017-Jul-18 06:30N 59°32' E 024°41'3 6.0
2017-Jul-18 05:57N 59°30' E 024°46'3 4.6
2017-Jul-18 05:23N 59°27' E 024°44'0 0.0
2017-Jul-18 04:59N 59°27' E 024°44'0 0.0
2017-Jul-18 04:29N 59°27' E 024°44'0 0.0
2017-Jul-18 03:59N 59°27' E 024°44'0 0.0
2017-Jul-18 03:29N 59°27' E 024°44'0 0.0
2017-Jul-18 02:59N 59°27' E 024°44'0 0.0
2017-Jul-18 02:29N 59°27' E 024°44'0 0.0
2017-Jul-18 01:56N 59°27' E 024°44'0 0.0
2017-Jul-18 01:29N 59°27' E 024°44'0 0.0
2017-Jul-18 00:59N 59°27' E 024°44'0 0.0
2017-Jul-18 00:29N 59°27' E 024°44'0 0.0
2017-Jul-17 23:59N 59°27' E 024°44'0 0.0
2017-Jul-17 23:26N 59°27' E 024°44'0 0.0
2017-Jul-17 22:59N 59°27' E 024°44'0 0.0
2017-Jul-17 22:29N 59°27' E 024°44'0 0.0
2017-Jul-17 21:59N 59°27' E 024°44'0 0.0
2017-Jul-17 21:29N 59°27' E 024°44'0 0.0
2017-Jul-17 20:59N 59°27' E 024°44'0 0.0
2017-Jul-17 20:29N 59°27' E 024°44'0 0.0
2017-Jul-17 19:56N 59°27' E 024°44'0 0.0
2017-Jul-17 19:29N 59°27' E 024°44'0 0.0
2017-Jul-17 18:59N 59°27' E 024°44'0 0.0
2017-Jul-17 18:29N 59°27' E 024°44'0 0.0
2017-Jul-17 17:59N 59°27' E 024°44'0 0.0
2017-Jul-17 17:29N 59°27' E 024°44'0 0.0
2017-Jul-17 16:56N 59°27' E 024°44'0 0.0
2017-Jul-17 16:29N 59°27' E 024°44'0 0.0
2017-Jul-17 15:59N 59°27' E 024°44'0 0.0
2017-Jul-17 15:26N 59°27' E 024°44'0 0.0
2017-Jul-17 14:59N 59°27' E 024°44'0 0.0
2017-Jul-17 14:29N 59°27' E 024°44'0 0.0
2017-Jul-17 13:59N 59°27' E 024°44'0 0.0
2017-Jul-17 13:23N 59°27' E 024°44'0 0.0
2017-Jul-17 12:59N 59°27' E 024°44'0 0.0
2017-Jul-17 12:26N 59°27' E 024°44'75 3.7
2017-Jul-16 16:21N 60°18' E 026°34'3 6.3
2017-Jul-16 15:55N 60°20' E 026°38'3 6.1
2017-Jul-16 15:27N 60°22' E 026°42'3 5.9
2017-Jul-16 15:00N 60°23' E 026°47'3 6.0
2017-Jul-16 14:30N 60°24' E 026°53'5 2.6
2017-Jul-16 12:40N 60°29' E 026°57'0 0.1
2017-Jul-16 07:54N 60°28' E 026°56'0 0.0
2017-Jul-16 04:48N 60°28' E 026°56'0 0.0
2017-Jul-16 04:24N 60°28' E 026°56'0 0.0
2017-Jul-16 04:00N 60°28' E 026°56'0 0.0
2017-Jul-16 03:30N 60°28' E 026°56'0 0.0
2017-Jul-16 02:54N 60°28' E 026°56'0 0.0
2017-Jul-16 02:24N 60°28' E 026°56'0 0.0
2017-Jul-16 02:00N 60°28' E 026°56'0 0.0
2017-Jul-16 01:24N 60°28' E 026°56'0 0.0
2017-Jul-16 01:00N 60°28' E 026°56'0 0.0
2017-Jul-16 00:30N 60°28' E 026°56'0 0.0
2017-Jul-15 23:57N 60°28' E 026°56'0 0.0
2017-Jul-15 23:27N 60°28' E 026°56'0 0.0
2017-Jul-15 23:00N 60°28' E 026°56'0 0.0
2017-Jul-15 22:21N 60°28' E 026°56'0 0.0
2017-Jul-15 22:00N 60°28' E 026°56'0 0.0
2017-Jul-15 21:30N 60°28' E 026°56'0 0.0
2017-Jul-15 21:00N 60°28' E 026°56'0 0.0
2017-Jul-15 20:30N 60°28' E 026°56'0 0.0
2017-Jul-15 18:06N 60°28' E 026°56'0 0.0
2017-Jul-15 17:57N 60°28' E 026°56'0 0.0
2017-Jul-15 17:30N 60°28' E 026°56'0 0.0
2017-Jul-15 17:00N 60°28' E 026°56'0 0.0
2017-Jul-15 16:24N 60°28' E 026°56'0 0.0
2017-Jul-15 16:00N 60°28' E 026°56'0 0.0
2017-Jul-15 15:27N 60°28' E 026°56'0 0.0
2017-Jul-15 13:48N 60°28' E 026°56'0 0.0
2017-Jul-15 13:30N 60°28' E 026°56'0 0.0
2017-Jul-15 12:57N 60°28' E 026°56'0 0.0
2017-Jul-15 12:30N 60°28' E 026°56'0 0.0
2017-Jul-15 12:00N 60°28' E 026°56'0 0.0
2017-Jul-15 10:54N 60°28' E 026°56'0 0.0
2017-Jul-15 10:30N 60°28' E 026°56'0 0.0
2017-Jul-15 10:00N 60°28' E 026°56'0 0.0
2017-Jul-15 09:30N 60°28' E 026°56'0 0.0
2017-Jul-15 07:24N 60°28' E 026°56'0 0.0
2017-Jul-15 07:00N 60°28' E 026°56'0 0.0
2017-Jul-15 04:30N 60°28' E 026°56'0 0.0
2017-Jul-15 03:45N 60°28' E 026°56'0 0.0
2017-Jul-15 03:30N 60°28' E 026°56'0 0.0
2017-Jul-15 02:00N 60°28' E 026°56'0 0.0
2017-Jul-15 00:21N 60°28' E 026°56'0 0.0
2017-Jul-14 23:57N 60°28' E 026°56'0 0.0
2017-Jul-14 23:27N 60°28' E 026°56'0 0.0
2017-Jul-14 22:12N 60°28' E 026°56'0 0.0
2017-Jul-14 22:00N 60°28' E 026°56'0 0.0
2017-Jul-14 21:27N 60°28' E 026°56'0 0.0
2017-Jul-14 21:00N 60°28' E 026°56'0 0.0
2017-Jul-14 19:24N 60°28' E 026°56'0 0.0
2017-Jul-14 18:57N 60°28' E 026°56'  
Track history (hours):
 
Tides and Currents Weather Stations Pressure Air Temp Water Temp Dewpoint Dewpoint Depression Visibility Wind Speed Wind Dir Waves Ship Positions

La Belle Poule (France)

Ship's website: http://www.defense.gouv.fr/english/portail-defense

Last reported at 2017-Jul-24 10:46 UTC. Time now 2017-Jul-28 06:35 UTC.
Position N 59°38' E 021°20'.

Length 38 m; draft 3.6 m.

Type: Sailing vessel. MMSI: 228796000.

Date/timePositionNaut miles runAvg speedWind from/ knotsBaromVisibWave heightAir tempDewpointWater temp
2017-Jul-24 10:46N 59°38' E 021°20'2 1.2
2017-Jul-24 09:18N 59°40' E 021°21'4 2.1
2017-Jul-24 07:29N 59°38' E 021°27'3 5.3
2017-Jul-24 06:55N 59°39' E 021°22'3 0.7
2017-Jul-24 03:02N 59°36' E 021°25'1 4.1
2017-Jul-24 02:52N 59°36' E 021°24'5 0.8
2017-Jul-23 20:41N 59°41' E 021°21'1 8.2
2017-Jul-23 20:30N 59°42' E 021°22'4 8.5
2017-Jul-23 20:00N 59°47' E 021°21'3 7.2
2017-Jul-23 19:31N 59°50' E 021°23'4 7.2
2017-Jul-23 19:00N 59°52' E 021°29'  
2017-Jul-18 06:36N 59°32' E 024°39'1 7.0
2017-Jul-18 06:30N 59°32' E 024°41'3 6.0
2017-Jul-18 05:57N 59°30' E 024°46'3 4.6
2017-Jul-18 05:23N 59°27' E 024°44'0 0.0
2017-Jul-18 04:59N 59°27' E 024°44'0 0.0
2017-Jul-18 04:29N 59°27' E 024°44'0 0.0
2017-Jul-18 03:59N 59°27' E 024°44'0 0.0
2017-Jul-18 03:29N 59°27' E 024°44'0 0.0
2017-Jul-18 02:59N 59°27' E 024°44'0 0.0
2017-Jul-18 02:29N 59°27' E 024°44'0 0.0
2017-Jul-18 01:56N 59°27' E 024°44'0 0.0
2017-Jul-18 01:29N 59°27' E 024°44'0 0.0
2017-Jul-18 00:59N 59°27' E 024°44'0 0.0
2017-Jul-18 00:29N 59°27' E 024°44'0 0.0
2017-Jul-17 23:59N 59°27' E 024°44'0 0.0
2017-Jul-17 23:26N 59°27' E 024°44'0 0.0
2017-Jul-17 22:59N 59°27' E 024°44'0 0.0
2017-Jul-17 22:29N 59°27' E 024°44'0 0.0
2017-Jul-17 21:59N 59°27' E 024°44'0 0.0
2017-Jul-17 21:29N 59°27' E 024°44'0 0.0
2017-Jul-17 20:59N 59°27' E 024°44'0 0.0
2017-Jul-17 20:29N 59°27' E 024°44'0 0.0
2017-Jul-17 19:56N 59°27' E 024°44'0 0.0
2017-Jul-17 19:29N 59°27' E 024°44'0 0.0
2017-Jul-17 18:59N 59°27' E 024°44'0 0.0
2017-Jul-17 18:29N 59°27' E 024°44'0 0.0
2017-Jul-17 17:59N 59°27' E 024°44'0 0.0
2017-Jul-17 17:29N 59°27' E 024°44'0 0.0
2017-Jul-17 16:56N 59°27' E 024°44'0 0.0
2017-Jul-17 16:29N 59°27' E 024°44'0 0.0
2017-Jul-17 15:59N 59°27' E 024°44'0 0.0
2017-Jul-17 15:26N 59°27' E 024°44'0 0.0
2017-Jul-17 14:59N 59°27' E 024°44'0 0.0
2017-Jul-17 14:29N 59°27' E 024°44'0 0.0
2017-Jul-17 13:59N 59°27' E 024°44'0 0.0
2017-Jul-17 13:23N 59°27' E 024°44'0 0.0
2017-Jul-17 12:59N 59°27' E 024°44'0 0.0
2017-Jul-17 12:26N 59°27' E 024°44'75 3.7
2017-Jul-16 16:21N 60°18' E 026°34'3 6.3
2017-Jul-16 15:55N 60°20' E 026°38'3 6.1
2017-Jul-16 15:27N 60°22' E 026°42'3 5.9
2017-Jul-16 15:00N 60°23' E 026°47'3 6.0
2017-Jul-16 14:30N 60°24' E 026°53'5 2.6
2017-Jul-16 12:40N 60°29' E 026°57'0 0.1
2017-Jul-16 07:54N 60°28' E 026°56'0 0.0
2017-Jul-16 04:48N 60°28' E 026°56'0 0.0
2017-Jul-16 04:24N 60°28' E 026°56'0 0.0
2017-Jul-16 04:00N 60°28' E 026°56'0 0.0
2017-Jul-16 03:30N 60°28' E 026°56'0 0.0
2017-Jul-16 02:54N 60°28' E 026°56'0 0.0
2017-Jul-16 02:24N 60°28' E 026°56'0 0.0
2017-Jul-16 02:00N 60°28' E 026°56'0 0.0
2017-Jul-16 01:24N 60°28' E 026°56'0 0.0
2017-Jul-16 01:00N 60°28' E 026°56'0 0.0
2017-Jul-16 00:30N 60°28' E 026°56'0 0.0
2017-Jul-15 23:57N 60°28' E 026°56'0 0.0
2017-Jul-15 23:27N 60°28' E 026°56'0 0.0
2017-Jul-15 23:00N 60°28' E 026°56'0 0.0
2017-Jul-15 22:21N 60°28' E 026°56'0 0.0
2017-Jul-15 22:00N 60°28' E 026°56'0 0.0
2017-Jul-15 21:30N 60°28' E 026°56'0 0.0
2017-Jul-15 21:00N 60°28' E 026°56'0 0.0
2017-Jul-15 20:30N 60°28' E 026°56'0 0.0
2017-Jul-15 18:06N 60°28' E 026°56'0 0.0
2017-Jul-15 17:57N 60°28' E 026°56'0 0.0
2017-Jul-15 17:30N 60°28' E 026°56'0 0.0
2017-Jul-15 17:00N 60°28' E 026°56'0 0.0
2017-Jul-15 16:24N 60°28' E 026°56'0 0.0
2017-Jul-15 16:00N 60°28' E 026°56'0 0.0
2017-Jul-15 15:27N 60°28' E 026°56'0 0.0
2017-Jul-15 13:48N 60°28' E 026°56'0 0.0
2017-Jul-15 13:30N 60°28' E 026°56'0 0.0
2017-Jul-15 12:57N 60°28' E 026°56'0 0.0
2017-Jul-15 12:30N 60°28' E 026°56'0 0.0
2017-Jul-15 12:00N 60°28' E 026°56'0 0.0
2017-Jul-15 10:54N 60°28' E 026°56'0 0.0
2017-Jul-15 10:30N 60°28' E 026°56'0 0.0
2017-Jul-15 10:00N 60°28' E 026°56'0 0.0
2017-Jul-15 09:30N 60°28' E 026°56'0 0.0
2017-Jul-15 07:24N 60°28' E 026°56'0 0.0
2017-Jul-15 07:00N 60°28' E 026°56'0 0.0
2017-Jul-15 04:30N 60°28' E 026°56'0 0.0
2017-Jul-15 03:45N 60°28' E 026°56'0 0.0
2017-Jul-15 03:30N 60°28' E 026°56'0 0.0
2017-Jul-15 02:00N 60°28' E 026°56'0 0.0
2017-Jul-15 00:21N 60°28' E 026°56'0 0.0
2017-Jul-14 23:57N 60°28' E 026°56'0 0.0
2017-Jul-14 23:27N 60°28' E 026°56'0 0.0
2017-Jul-14 22:12N 60°28' E 026°56'0 0.0
2017-Jul-14 22:00N 60°28' E 026°56'0 0.0
2017-Jul-14 21:27N 60°28' E 026°56'0 0.0
2017-Jul-14 21:00N 60°28' E 026°56'0 0.0
2017-Jul-14 19:24N 60°28' E 026°56'0 0.0
2017-Jul-14 18:57N 60°28' E 026°56'  

Dump ship's entire track history